DGAA/ACC METAR and TAF weather

Enter ICAO airport designator
Station Type Date Time Source
DGAA METAR 2021/01/16 03:00 UTC NOAA

DGAA 160300Z 25008KT 9999 BKN011 BKN017 27/25 Q1008 NOSIG


Station Type Date Time Source
DGAA Decoded METAR 2021/01/16 03:00 UTC NOAA

Accra, Ghana (DGAA) 05-36N 000-10W 69M
Jan 15, 2021 - 10:00 PM EST / 2021.01.16 0300 UTC
Wind: from the WSW (250 degrees) at 9 MPH (8 KT):0
Visibility: greater than 7 mile(s):0
Sky conditions: mostly cloudy
Temperature: 80 F (27 C)
Dew Point: 77 F (25 C)
Relative Humidity: 88%
Pressure (altimeter): 29.77 in. Hg (1008 hPa)
ob: DGAA 160300Z 25008KT 9999 BKN011 BKN017 27/25 Q1008 NOSIG
cycle: 3

Station Type Date Time Source
DGAA TAF 2021/01/15 18:21 UTC NOAA

TAF TAF DGAA 151700Z 1518/1624 25010KT 9999 SCT014 PROB30
TEMPO 1505/1509 5000 BR
BECMG 1512/1514 19010KT
TEMPO 1515/1518 FEW030CB

Example: see airport list